< Typhoon 195906 1959 Season Typhoon 195908 >
Typhoon 195907 (GEORGIA)
General InformationTrack Information on Google Maps || NewsDisaster Info.ResourceGoogle EarthGE AnimationAtom FeedGeoJSON
Detalied Best Track (Time Zone = UTC)
Year Month Day Hour Lat. Long. Pressure (hPa) Wind (kt) Class Image Chart
1959 8 10 00 15.0 153.0 1006 0 2 -- Chart
1959 8 10 06 15.6 152.0 1004 0 2 -- Chart
1959 8 10 12 16.0 151.0 1006 0 2 -- Chart
1959 8 10 18 17.0 150.0 1004 0 2 -- Chart
1959 8 11 00 17.9 149.0 1004 0 2 -- Chart
1959 8 11 06 18.8 148.1 1002 0 2 -- Chart
1959 8 11 12 19.7 147.2 1002 0 2 -- Chart
1959 8 11 18 21.0 146.2 1002 0 2 -- Chart
1959 8 12 00 22.2 145.2 995 0 9 -- Chart
1959 8 12 06 23.1 144.1 994 0 9 -- Chart
1959 8 12 12 24.5 142.9 980 0 9 -- Chart
1959 8 12 18 25.3 142.1 965 0 9 -- Chart
1959 8 13 00 26.6 141.2 960 0 9 -- Chart
1959 8 13 06 28.3 140.5 965 0 9 -- Chart
1959 8 13 12 30.7 139.7 965 0 9 -- Chart
1959 8 13 18 33.5 139.2 965 0 9 -- Chart
1959 8 14 00 36.6 138.1 978 0 9 -- Chart
1959 8 14 06 40.0 137.5 984 0 9 -- Chart
1959 8 14 12 41.5 136.5 992 0 9 -- Chart
1959 8 14 18 43.0 135.0 994 0 2 -- Chart
1959 8 15 00 43.5 134.5 998 0 6 -- Chart
1959 8 15 06 45.0 134.8 996 0 6 -- Chart
1959 8 15 12 45.5 136.5 998 0 6 -- Chart
1959 8 15 18 46.5 138.8 998 0 6 -- Chart
Japan Meteorological Agency Best Track Data | Correction Date : 1989-06-01
< Typhoon 195906 1959 Season Typhoon 195908 >

Help